Time;durP1;ratioP1;P1;durP2;ratioP2;P2;SDS_P1;SDS_P2;PMS_P1;PMS_P2;Temp;Humidity;BMP_temperature;BMP_pressure;BME280_temperature;BME280_humidity;BME280_pressure;Samples;Min_cycle;Max_cycle;Signal;HPM_P1;HPM_P2
2022/02/11 00:01:05;;;;;;;;;;;;;;;18.80;37.12;101538.88;4997889;28;858;-60
2022/02/11 00:08:58;;;;;;;;;;;;;;;19.01;36.89;101537.03;4982049;28;894;-60
2022/02/11 00:11:32;;;;;;;;;;;;;;;18.70;37.29;101534.16;4979236;28;867;-60
2022/02/11 00:13:57;;;;;;;;;;;;;;;18.33;37.99;101532.34;4983360;28;1906;-60
2022/02/11 00:16:23;;;;;;;;;;;;;;;19.54;36.01;101519.47;4978810;28;882;-61
2022/02/11 00:18:48;;;;;;;;;;;;;;;18.99;36.90;101530.97;4979256;28;775;-61
2022/02/11 00:21:13;;;;;;;;;;;;;;;18.45;37.90;101524.69;4982405;28;1488;-61
2022/02/11 00:23:39;;;;;;;;;;;;;;;18.23;38.28;101522.09;4979113;28;804;-60
2022/02/11 00:26:06;;;;;;;;;;;;;;;18.78;37.00;101528.13;4978223;28;838;-61
2022/02/11 00:33:58;;;;;;;;;;;;;;;18.62;37.31;101520.88;4979177;28;1977;-62
2022/02/11 00:36:29;;;;;;;;;;;;;;;18.98;36.70;101527.41;4978357;28;871;-62
2022/02/11 00:46:46;;;;;;;;;;;;;;;19.11;36.55;101511.41;4990799;28;867;-61
2022/02/11 01:02:49;;;;;;;;;;;;;;;18.91;36.70;101503.94;4978379;28;786;-61
2022/02/11 01:05:14;;;;;;;;;;;;;;;19.13;36.34;101501.78;4990166;28;914;-61
2022/02/11 01:07:39;;;;;;;;;;;;;;;19.24;35.92;101497.13;4996542;28;866;-61
2022/02/11 01:10:05;;;;;;;;;;;;;;;19.28;36.10;101492.72;4997103;28;774;-61
2022/02/11 01:12:31;;;;;;;;;;;;;;;18.96;36.64;101484.66;4987191;28;1884;-61
2022/02/11 01:14:57;;;;;;;;;;;;;;;18.47;37.47;101483.13;4978968;28;786;-61
2022/02/11 01:17:34;;;;;;;;;;;;;;;18.37;37.60;101478.38;4977671;28;866;-61
2022/02/11 01:35:52;;;;;;;;;;;;;;;19.56;35.18;101465.69;4977869;28;835;-60
2022/02/11 01:58:17;;;;;;;;;;;;;;;19.40;35.45;101451.06;4990081;28;875;-60
2022/02/11 02:00:25;;;;;;;;;;;;;;;19.20;36.12;101451.06;4984672;28;1407;-60
2022/02/11 02:16:48;;;;;;;;;;;;;;;19.69;34.93;101447.72;4983086;28;882;-60
2022/02/11 02:59:02;;;;;;;;;;;;;;;18.95;36.10;101422.38;4983007;28;946;-60
2022/02/11 03:53:49;;;;;;;;;;;;;;;19.18;35.74;101433.97;4997866;28;1910;-62
2022/02/11 04:55:24;;;;;;;;;;;;;;;18.46;37.18;101429.13;4996631;28;879;-61
2022/02/11 05:00:34;;;;;;;;;;;;;;;19.45;35.06;101434.50;4979552;28;855;-64
2022/02/11 05:02:59;;;;;;;;;;;;;;;18.69;36.41;101430.56;4976486;28;980;-60
2022/02/11 05:05:24;;;;;;;;;;;;;;;18.30;37.38;101433.75;4977904;28;775;-64
2022/02/11 05:07:50;;;;;;;;;;;;;;;18.40;37.15;101431.03;4978219;28;851;-65
2022/02/11 05:10:16;;;;;;;;;;;;;;;18.59;36.99;101430.53;4978058;28;1057;-62
2022/02/11 05:12:42;;;;;;;;;;;;;;;19.02;35.93;101422.13;4979176;28;1915;-62
2022/02/11 05:15:09;;;;;;;;;;;;;;;19.83;34.43;101415.72;4981992;28;983;-59
2022/02/11 05:17:38;;;;;;;;;;;;;;;18.93;35.98;101430.09;4995928;28;825;-63
2022/02/11 05:20:04;;;;;;;;;;;;;;;18.39;37.33;101432.13;4994577;28;1038;-62
2022/02/11 05:22:30;;;;;;;;;;;;;;;18.22;37.61;101431.53;4996901;28;870;-62
2022/02/11 05:24:55;;;;;;;;;;;;;;;18.14;37.90;101430.09;4996442;28;859;-62
2022/02/11 05:27:20;;;;;;;;;;;;;;;18.44;37.07;101431.34;4982293;28;826;-62
2022/02/11 05:29:46;;;;;;;;;;;;;;;18.56;36.77;101422.81;4981935;28;805;-63
2022/02/11 05:32:11;;;;;;;;;;;;;;;18.91;36.10;101429.53;4977486;28;1003;-62
2022/02/11 05:34:37;;;;;;;;;;;;;;;19.12;35.86;101431.19;4977514;28;1972;-61
2022/02/11 05:37:03;;;;;;;;;;;;;;;19.36;35.11;101433.41;4977730;28;842;-62
2022/02/11 05:39:28;;;;;;;;;;;;;;;19.44;34.99;101423.75;4981486;28;827;-59
2022/02/11 05:41:53;;;;;;;;;;;;;;;19.26;35.32;101438.94;4977507;28;945;-59
2022/02/11 05:44:19;;;;;;;;;;;;;;;18.80;36.39;101424.00;4981201;28;953;-59
2022/02/11 05:46:44;;;;;;;;;;;;;;;18.57;36.82;101421.72;4976987;28;766;-63
2022/02/11 05:49:10;;;;;;;;;;;;;;;18.53;36.75;101429.69;4977052;28;1235;-63
2022/02/11 05:51:35;;;;;;;;;;;;;;;18.62;36.86;101430.00;4977731;28;876;-63
2022/02/11 05:54:00;;;;;;;;;;;;;;;18.86;36.38;101435.00;4977706;28;1902;-63
2022/02/11 05:56:26;;;;;;;;;;;;;;;19.19;35.81;101432.88;4977137;28;750;-63
2022/02/11 05:58:51;;;;;;;;;;;;;;;19.40;35.10;101436.44;4979368;28;835;-65
2022/02/11 06:01:17;;;;;;;;;;;;;;;19.40;35.13;101439.22;4977366;28;839;-64
2022/02/11 06:03:42;;;;;;;;;;;;;;;19.13;35.70;101441.13;4978909;28;902;-63
2022/02/11 06:06:08;;;;;;;;;;;;;;;18.86;36.10;101435.00;4979442;28;1019;-61
2022/02/11 06:08:33;;;;;;;;;;;;;;;18.68;36.62;101439.09;4977416;28;744;-61
2022/02/11 06:10:58;;;;;;;;;;;;;;;18.51;37.05;101445.69;4987256;28;1010;-61
2022/02/11 06:13:24;;;;;;;;;;;;;;;18.66;36.54;101442.13;4986307;28;1909;-61
2022/02/11 06:15:49;;;;;;;;;;;;;;;19.23;35.52;101445.00;4977395;28;776;-62
2022/02/11 06:18:15;;;;;;;;;;;;;;;18.64;36.62;101452.59;4976970;28;898;-63
2022/02/11 06:20:40;;;;;;;;;;;;;;;18.50;36.86;101454.22;4977117;28;803;-64
2022/02/11 06:23:06;;;;;;;;;;;;;;;18.29;37.50;101454.13;4985114;28;867;-64
2022/02/11 06:25:31;;;;;;;;;;;;;;;20.24;33.75;101447.88;4998280;28;906;-64
2022/02/11 06:27:56;;;;;;;;;;;;;;;19.21;35.32;101449.94;4998524;28;822;-65
2022/02/11 06:30:22;;;;;;;;;;;;;;;18.71;36.48;101444.91;4984204;28;1596;-65
2022/02/11 06:32:47;;;;;;;;;;;;;;;18.81;36.59;101455.13;4980299;28;1974;-61
2022/02/11 06:35:14;;;;;;;;;;;;;;;19.06;35.94;101439.75;4981194;28;946;-64
2022/02/11 06:37:45;;;;;;;;;;;;;;;18.54;36.90;101438.81;4980791;28;792;-65
2022/02/11 06:40:11;;;;;;;;;;;;;;;18.34;37.13;101440.38;4983111;28;1385;-62
2022/02/11 06:42:37;;;;;;;;;;;;;;;18.38;37.30;101440.66;4995525;28;1468;-59
2022/02/11 06:45:03;;;;;;;;;;;;;;;19.33;34.94;101433.97;4999042;28;1232;-63
2022/02/11 06:47:28;;;;;;;;;;;;;;;18.87;35.91;101436.66;4997472;28;1392;-60
2022/02/11 06:49:53;;;;;;;;;;;;;;;19.20;35.61;101440.03;4989571;28;1430;-61
2022/02/11 06:52:19;;;;;;;;;;;;;;;20.22;33.91;101435.47;4993050;28;1435;-63
2022/02/11 06:54:44;;;;;;;;;;;;;;;20.54;32.86;101436.97;4994110;28;1922;-63
2022/02/11 06:57:10;;;;;;;;;;;;;;;19.22;35.66;101438.66;4981313;28;1417;-60
2022/02/11 06:59:35;;;;;;;;;;;;;;;19.89;34.45;101437.78;4989740;28;1364;-64
2022/02/11 07:02:00;;;;;;;;;;;;;;;20.21;33.90;101431.88;4987994;28;1487;-58
2022/02/11 07:04:26;;;;;;;;;;;;;;;20.00;34.16;101437.47;4997734;28;867;-61
2022/02/11 07:06:51;;;;;;;;;;;;;;;19.68;34.93;101437.78;4987897;28;1491;-61
2022/02/11 07:09:17;;;;;;;;;;;;;;;19.12;35.68;101438.66;4988118;28;1554;-58
2022/02/11 07:11:42;;;;;;;;;;;;;;;18.83;36.37;101430.88;4988736;28;1284;-59
2022/02/11 07:14:08;;;;;;;;;;;;;;;18.83;36.63;101436.41;4983075;28;1910;-57
2022/02/11 07:16:33;;;;;;;;;;;;;;;20.00;34.31;101434.69;4986018;28;1417;-56
2022/02/11 07:18:58;;;;;;;;;;;;;;;19.81;34.61;101440.00;4983781;28;1299;-59
2022/02/11 07:21:24;;;;;;;;;;;;;;;19.53;35.24;101432.28;4984361;28;1273;-59
2022/02/11 07:23:49;;;;;;;;;;;;;;;19.30;35.85;101440.03;4989207;28;1695;-58
2022/02/11 07:26:15;;;;;;;;;;;;;;;19.28;35.67;101437.56;4986666;28;1479;-57
2022/02/11 07:28:40;;;;;;;;;;;;;;;19.60;35.36;101439.19;4990691;28;1335;-57
2022/02/11 07:31:05;;;;;;;;;;;;;;;20.00;34.55;101431.94;4985886;28;1550;-58
2022/02/11 07:33:31;;;;;;;;;;;;;;;20.34;33.99;101431.28;4992402;28;1913;-57
2022/02/11 07:35:56;;;;;;;;;;;;;;;20.50;33.64;101436.72;4988824;28;1347;-58
2022/02/11 07:38:22;;;;;;;;;;;;;;;20.60;33.25;101436.66;4988288;28;1105;-60
2022/02/11 07:40:48;;;;;;;;;;;;;;;20.74;33.19;101434.13;4989275;28;1259;-58
2022/02/11 07:43:14;;;;;;;;;;;;;;;20.88;32.82;101425.22;4983992;28;1213;-60
2022/02/11 07:45:39;;;;;;;;;;;;;;;21.00;32.57;101425.69;4984750;28;1279;-58
2022/02/11 07:48:05;;;;;;;;;;;;;;;21.11;32.46;101432.78;4986645;28;1574;-55
2022/02/11 07:50:30;;;;;;;;;;;;;;;21.11;32.57;101430.00;4983434;28;1252;-58
2022/02/11 07:52:56;;;;;;;;;;;;;;;21.09;32.49;101435.00;4987842;28;1899;-57
2022/02/11 07:55:21;;;;;;;;;;;;;;;20.45;33.65;101434.78;4988376;28;1312;-57
2022/02/11 07:57:47;;;;;;;;;;;;;;;19.82;34.77;101427.88;4988048;28;1315;-57
2022/02/11 08:00:14;;;;;;;;;;;;;;;19.21;35.77;101430.66;4986721;28;1621;-56
2022/02/11 08:02:40;;;;;;;;;;;;;;;19.17;36.35;101429.53;4993210;28;1308;-58
2022/02/11 08:05:06;;;;;;;;;;;;;;;19.76;35.29;101426.19;4992638;28;1320;-58
2022/02/11 08:07:31;;;;;;;;;;;;;;;20.78;33.12;101421.38;4989510;28;1570;-58
2022/02/11 08:09:56;;;;;;;;;;;;;;;20.39;34.00;101422.13;4989110;28;1403;-57
2022/02/11 08:12:22;;;;;;;;;;;;;;;20.05;34.74;101414.56;4984099;28;1317;-57
2022/02/11 08:14:47;;;;;;;;;;;;;;;19.81;35.26;101423.47;4989370;28;1906;-56
2022/02/11 08:17:13;;;;;;;;;;;;;;;19.76;35.47;101415.16;4982396;28;1293;-57
2022/02/11 08:19:38;;;;;;;;;;;;;;;19.64;35.72;101417.38;4987019;28;1224;-54
2022/02/11 08:22:03;;;;;;;;;;;;;;;19.51;36.03;101418.78;4983807;28;1270;-55
2022/02/11 08:24:29;;;;;;;;;;;;;;;19.51;36.18;101413.28;4990934;28;1404;-56
2022/02/11 08:26:54;;;;;;;;;;;;;;;19.68;35.55;101410.19;4988951;28;1325;-58
2022/02/11 08:29:25;;;;;;;;;;;;;;;19.96;35.05;101407.94;4989381;28;1309;-57
2022/02/11 08:31:56;;;;;;;;;;;;;;;20.04;34.84;101409.31;4985185;28;1250;-58
2022/02/11 08:34:22;;;;;;;;;;;;;;;20.06;34.88;101407.91;4986774;28;1973;-58
2022/02/11 08:36:47;;;;;;;;;;;;;;;20.06;35.11;101407.91;4985942;28;1302;-58
2022/02/11 08:39:13;;;;;;;;;;;;;;;20.17;34.79;101408.69;4991069;28;1329;-59
2022/02/11 08:41:39;;;;;;;;;;;;;;;20.15;34.65;101402.66;4980493;28;1138;-57
2022/02/11 08:44:04;;;;;;;;;;;;;;;20.20;34.80;101402.59;4987469;28;1606;-58
2022/02/11 08:46:31;;;;;;;;;;;;;;;20.32;34.48;101405.03;4985533;28;1209;-56
2022/02/11 08:48:56;;;;;;;;;;;;;;;20.27;34.45;101408.66;4986579;28;1153;-57
2022/02/11 08:51:21;;;;;;;;;;;;;;;20.25;34.54;101404.53;4985642;28;1193;-59
2022/02/11 08:53:49;;;;;;;;;;;;;;;20.30;34.53;101398.97;4995453;28;1977;-57
2022/02/11 08:56:14;;;;;;;;;;;;;;;21.07;33.04;101394.91;4991671;28;1178;-60
2022/02/11 08:58:39;;;;;;;;;;;;;;;20.95;33.32;101387.00;4985279;28;1241;-58
2022/02/11 09:01:05;;;;;;;;;;;;;;;20.60;34.00;101397.97;4986580;28;1299;-60
2022/02/11 09:03:31;;;;;;;;;;;;;;;20.38;34.52;101403.09;4985156;28;1272;-59
2022/02/11 09:05:56;;;;;;;;;;;;;;;20.24;34.71;101409.22;4987089;28;1348;-62
2022/02/11 09:08:22;;;;;;;;;;;;;;;20.07;35.02;101404.03;4985749;28;1338;-58
2022/02/11 09:10:48;;;;;;;;;;;;;;;19.88;35.31;101397.47;4985803;28;1220;-58
2022/02/11 09:13:14;;;;;;;;;;;;;;;19.87;35.43;101401.38;4985095;28;1979;-56
2022/02/11 09:15:39;;;;;;;;;;;;;;;19.78;35.68;101399.16;4987502;28;1240;-59
2022/02/11 09:18:05;;;;;;;;;;;;;;;19.76;35.64;101397.78;4982677;28;1185;-61
2022/02/11 09:20:30;;;;;;;;;;;;;;;19.79;35.70;101403.56;4985224;28;1249;-60
2022/02/11 09:22:56;;;;;;;;;;;;;;;19.87;35.60;101395.84;4984075;28;1174;-61
2022/02/11 09:25:21;;;;;;;;;;;;;;;19.85;35.55;101384.25;4985900;28;1400;-59
2022/02/11 09:27:47;;;;;;;;;;;;;;;19.88;35.33;101387.28;4985193;28;1188;-60
2022/02/11 09:30:19;;;;;;;;;;;;;;;19.81;35.71;101389.50;4985612;28;1308;-59
2022/02/11 09:32:45;;;;;;;;;;;;;;;19.83;35.42;101385.34;4986473;28;1906;-59
2022/02/11 09:35:11;;;;;;;;;;;;;;;19.74;35.82;101384.25;4987911;28;1561;-58
2022/02/11 09:37:37;;;;;;;;;;;;;;;19.81;35.83;101382.06;4989816;28;1323;-57
2022/02/11 09:40:06;;;;;;;;;;;;;;;19.80;35.76;101376.81;4986719;28;1357;-56
2022/02/11 09:42:32;;;;;;;;;;;;;;;19.94;35.57;101377.88;4984943;28;1248;-57
2022/02/11 09:44:57;;;;;;;;;;;;;;;20.02;35.28;101367.34;4985073;28;1709;-57
2022/02/11 09:47:23;;;;;;;;;;;;;;;19.93;35.61;101372.63;4984889;28;1256;-57
2022/02/11 09:49:49;;;;;;;;;;;;;;;19.94;35.44;101366.00;4984390;28;1356;-57
2022/02/11 09:52:14;;;;;;;;;;;;;;;19.97;35.64;101360.75;4982644;28;1180;-56
2022/02/11 09:54:40;;;;;;;;;;;;;;;20.01;35.55;101363.78;4989124;28;1981;-60
2022/02/11 09:57:05;;;;;;;;;;;;;;;19.99;35.63;101357.69;4992734;28;1372;-59
2022/02/11 09:59:30;;;;;;;;;;;;;;;20.02;35.61;101357.16;4988176;28;1240;-59
2022/02/11 10:01:56;;;;;;;;;;;;;;;19.97;35.53;101351.66;4995833;28;1364;-57
2022/02/11 10:04:22;;;;;;;;;;;;;;;20.03;35.61;101344.97;4986945;28;1272;-59
2022/02/11 10:06:48;;;;;;;;;;;;;;;20.06;35.44;101344.41;4990408;28;1357;-58
2022/02/11 10:09:14;;;;;;;;;;;;;;;20.00;35.61;101337.28;4986763;28;1225;-57
2022/02/11 10:11:40;;;;;;;;;;;;;;;20.15;35.53;101328.09;4988127;28;1230;-57
2022/02/11 10:14:21;;;;;;;;;;;;;;;20.11;35.57;101315.97;4989083;28;1979;-57
2022/02/11 10:16:52;;;;;;;;;;;;;;;20.20;35.26;101319.75;4994502;28;1058;-57
2022/02/11 10:19:36;;;;;;;;;;;;;;;20.13;35.68;101309.06;4992380;28;1538;-57
2022/02/11 10:22:15;;;;;;;;;;;;;;;20.17;35.65;101310.13;4984874;28;1553;-57
2022/02/11 10:24:41;;;;;;;;;;;;;;;20.14;35.45;101307.91;4984553;28;1399;-57
2022/02/11 10:27:16;;;;;;;;;;;;;;;20.22;35.22;101305.69;4983279;28;1544;-57
2022/02/11 10:29:42;;;;;;;;;;;;;;;20.16;35.66;101300.19;4980538;28;1705;-57
2022/02/11 10:32:07;;;;;;;;;;;;;;;20.28;35.29;101299.03;4975931;28;1338;-59
2022/02/11 10:34:33;;;;;;;;;;;;;;;20.26;35.52;101290.19;4971645;28;1954;-61
2022/02/11 10:36:58;;;;;;;;;;;;;;;20.32;35.17;101294.56;4971895;28;1299;-60
2022/02/11 10:39:27;;;;;;;;;;;;;;;20.35;35.16;101282.94;4955494;28;1299;-60
2022/02/11 10:41:54;;;;;;;;;;;;;;;20.38;35.07;101289.84;4976691;28;1249;-59
2022/02/11 10:44:27;;;;;;;;;;;;;;;20.45;35.03;101277.34;4970637;28;1532;-64
2022/02/11 10:46:54;;;;;;;;;;;;;;;20.44;35.17;101272.94;4966150;28;1626;-66
2022/02/11 10:49:30;;;;;;;;;;;;;;;20.37;35.24;101274.38;4968417;28;1603;-64
2022/02/11 10:51:55;;;;;;;;;;;;;;;20.47;34.90;101266.84;4966262;28;1368;-63
2022/02/11 10:54:25;;;;;;;;;;;;;;;20.41;35.06;101273.53;4968969;28;1995;-62
2022/02/11 10:56:51;;;;;;;;;;;;;;;20.42;35.03;101277.09;4973395;28;1432;-64
2022/02/11 10:59:22;;;;;;;;;;;;;;;20.43;35.10;101263.00;4974498;28;1360;-60
2022/02/11 11:01:48;;;;;;;;;;;;;;;20.47;34.75;101255.78;4967491;28;1790;-66
2022/02/11 11:04:13;;;;;;;;;;;;;;;20.56;34.48;101252.41;4956925;28;1324;-63
2022/02/11 11:06:39;;;;;;;;;;;;;;;20.37;35.22;101257.81;4967049;28;1292;-63
2022/02/11 11:09:05;;;;;;;;;;;;;;;20.56;34.91;101244.94;4954700;28;1452;-60
2022/02/11 11:11:31;;;;;;;;;;;;;;;20.52;34.89;101247.47;4951660;28;1224;-60
2022/02/11 11:13:56;;;;;;;;;;;;;;;20.55;34.83;101248.81;4956966;28;1906;-64
2022/02/11 11:16:21;;;;;;;;;;;;;;;20.43;35.13;101246.44;4953025;28;1260;-61
2022/02/11 11:18:47;;;;;;;;;;;;;;;20.58;34.90;101255.69;4967328;28;1183;-60
2022/02/11 11:21:13;;;;;;;;;;;;;;;20.46;34.90;101245.84;4967394;28;1243;-61
2022/02/11 11:23:41;;;;;;;;;;;;;;;20.33;35.23;101249.28;4968723;28;1217;-64
2022/02/11 11:26:09;;;;;;;;;;;;;;;20.48;35.09;101237.28;4954024;28;1286;-62
2022/02/11 11:28:37;;;;;;;;;;;;;;;20.41;35.20;101245.91;4970776;28;1245;-58
2022/02/11 11:31:08;;;;;;;;;;;;;;;20.42;35.15;101239.25;4969905;28;1352;-60
2022/02/11 11:33:33;;;;;;;;;;;;;;;20.33;35.13;101247.34;4985324;28;1907;-61
2022/02/11 11:36:00;;;;;;;;;;;;;;;20.30;35.09;101247.06;4988727;28;1240;-64
2022/02/11 11:38:26;;;;;;;;;;;;;;;20.31;35.29;101240.44;4988822;28;1475;-61
2022/02/11 11:41:14;;;;;;;;;;;;;;;20.28;35.45;101235.50;4972604;28;1480;-59
2022/02/11 11:43:41;;;;;;;;;;;;;;;20.34;35.25;101226.91;4975473;28;1573;-60
2022/02/11 11:46:16;;;;;;;;;;;;;;;20.37;35.15;101222.75;4988770;28;1229;-58
2022/02/11 11:49:05;;;;;;;;;;;;;;;20.49;35.00;101217.63;4989646;28;1273;-63
2022/02/11 11:51:33;;;;;;;;;;;;;;;20.61;35.28;101222.81;4980699;28;1405;-61
2022/02/11 11:54:23;;;;;;;;;;;;;;;20.47;35.19;101225.41;4983861;28;1896;-64
2022/02/11 11:57:24;;;;;;;;;;;;;;;20.52;35.26;101222.59;4985512;28;1122;-64
2022/02/11 11:59:50;;;;;;;;;;;;;;;20.50;35.26;101208.25;4891894;29;1367;-60
2022/02/11 12:02:16;;;;;;;;;;;;;;;20.40;35.63;101213.03;4969589;28;1257;-61
2022/02/11 12:04:42;;;;;;;;;;;;;;;20.48;35.43;101210.50;4993428;28;1201;-61
2022/02/11 12:07:08;;;;;;;;;;;;;;;20.45;35.38;101202.75;4988066;28;1334;-62
2022/02/11 12:09:34;;;;;;;;;;;;;;;20.51;35.33;101198.03;4986338;28;1320;-61
2022/02/11 12:12:03;;;;;;;;;;;;;;;20.49;35.21;101195.53;4988070;28;1237;-64
2022/02/11 12:14:30;;;;;;;;;;;;;;;20.55;35.27;101192.75;4990163;28;1902;-66
2022/02/11 12:16:56;;;;;;;;;;;;;;;20.54;35.33;101191.09;4968408;28;1286;-68
2022/02/11 12:19:21;;;;;;;;;;;;;;;20.60;35.22;101188.00;4988086;28;1328;-62
2022/02/11 12:21:47;;;;;;;;;;;;;;;20.57;35.03;101185.81;4985047;28;1368;-62
2022/02/11 12:29:49;;;;;;;;;;;;;;;20.61;35.13;101186.06;4985778;28;971;-65
2022/02/11 12:32:15;;;;;;;;;;;;;;;20.57;35.35;101182.25;4968118;28;1280;-62
2022/02/11 12:34:46;;;;;;;;;;;;;;;20.55;35.36;101181.69;4985378;28;1914;-64
2022/02/11 12:37:11;;;;;;;;;;;;;;;20.51;35.28;101178.69;4987013;28;1108;-61
2022/02/11 12:39:37;;;;;;;;;;;;;;;20.51;35.33;101170.41;4985084;28;1514;-61
2022/02/11 12:42:02;;;;;;;;;;;;;;;20.52;35.35;101172.03;4993030;28;1174;-63
2022/02/11 12:44:31;;;;;;;;;;;;;;;20.65;35.09;101170.53;4985545;28;1030;-63
2022/02/11 12:46:59;;;;;;;;;;;;;;;20.59;35.22;101177.22;4986566;28;1289;-60
2022/02/11 12:49:25;;;;;;;;;;;;;;;20.62;35.02;101165.59;4988475;28;1533;-59
2022/02/11 12:51:50;;;;;;;;;;;;;;;20.66;34.86;101172.19;4988440;28;1215;-62
2022/02/11 12:54:16;;;;;;;;;;;;;;;20.64;34.88;101169.72;4990216;28;1979;-62
2022/02/11 12:56:41;;;;;;;;;;;;;;;20.64;35.20;101166.13;4991246;28;1038;-63
2022/02/11 12:59:07;;;;;;;;;;;;;;;20.68;35.02;101170.00;4988165;28;1277;-62
2022/02/11 13:01:33;;;;;;;;;;;;;;;20.72;34.71;101170.22;4995373;28;1131;-60
2022/02/11 13:03:58;;;;;;;;;;;;;;;20.74;34.99;101165.25;4982576;28;1651;-60
2022/02/11 13:06:24;;;;;;;;;;;;;;;20.87;34.84;101166.47;4981300;28;1368;-59
2022/02/11 13:08:49;;;;;;;;;;;;;;;20.84;34.63;101163.16;4992550;28;1376;-57
2022/02/11 13:11:16;;;;;;;;;;;;;;;20.40;35.47;101158.63;4988785;28;1297;-58
2022/02/11 13:13:42;;;;;;;;;;;;;;;20.21;35.78;101161.25;4989637;28;1906;-56
2022/02/11 13:16:07;;;;;;;;;;;;;;;19.77;36.78;101165.72;4992113;28;1638;-59
2022/02/11 13:18:35;;;;;;;;;;;;;;;19.27;37.27;101159.34;4990960;28;1387;-57
2022/02/11 13:21:04;;;;;;;;;;;;;;;19.03;37.63;101160.00;4990213;28;1323;-62
2022/02/11 13:23:30;;;;;;;;;;;;;;;19.19;38.50;101157.19;4986088;28;1240;-62
2022/02/11 13:25:56;;;;;;;;;;;;;;;19.90;38.12;101144.94;4986111;28;1260;-62
2022/02/11 13:28:21;;;;;;;;;;;;;;;21.34;35.11;101145.44;4986785;28;1363;-62
2022/02/11 13:30:57;;;;;;;;;;;;;;;20.92;36.01;101152.59;4986974;28;1291;-62
2022/02/11 13:33:22;;;;;;;;;;;;;;;20.15;37.33;101152.19;4983734;28;1906;-60
2022/02/11 13:35:48;;;;;;;;;;;;;;;19.60;38.07;101149.53;4981156;28;1284;-62
2022/02/11 13:38:26;;;;;;;;;;;;;;;19.24;38.02;101154.41;4985463;28;1112;-64
2022/02/11 13:40:56;;;;;;;;;;;;;;;19.11;38.21;101145.63;4989498;28;1328;-62
2022/02/11 13:43:21;;;;;;;;;;;;;;;19.18;39.74;101144.50;4985628;28;1213;-68
2022/02/11 13:45:49;;;;;;;;;;;;;;;19.06;40.72;101145.66;4992104;28;1099;-64
2022/02/11 13:48:16;;;;;;;;;;;;;;;19.26;40.50;101147.50;4980114;28;1212;-65
2022/02/11 13:51:11;;;;;;;;;;;;;;;19.27;40.28;101148.34;4970622;28;1328;-63
2022/02/11 13:53:40;;;;;;;;;;;;;;;19.26;40.09;101154.94;4986206;28;1979;-61
2022/02/11 13:56:07;;;;;;;;;;;;;;;19.37;39.80;101147.47;4985351;28;1217;-61
2022/02/11 13:58:35;;;;;;;;;;;;;;;19.20;40.05;101156.09;4979816;28;1213;-61
2022/02/11 14:01:01;;;;;;;;;;;;;;;19.28;39.97;101150.81;4984846;28;1161;-68
2022/02/11 14:03:28;;;;;;;;;;;;;;;19.35;39.65;101149.66;4985232;28;1378;-62
2022/02/11 14:05:54;;;;;;;;;;;;;;;19.43;39.32;101162.84;4985381;28;1237;-62
2022/02/11 14:08:21;;;;;;;;;;;;;;;19.33;39.47;101158.22;4983597;28;1311;-65
2022/02/11 14:10:47;;;;;;;;;;;;;;;19.47;39.21;101148.25;4989031;28;1306;-65
2022/02/11 14:13:13;;;;;;;;;;;;;;;19.30;39.32;101151.31;4986751;28;1914;-63
2022/02/11 14:15:42;;;;;;;;;;;;;;;19.45;39.22;101157.91;4984366;28;1239;-65
2022/02/11 14:18:08;;;;;;;;;;;;;;;19.61;38.93;101155.88;4995600;28;1139;-71
2022/02/11 14:20:37;;;;;;;;;;;;;;;19.59;38.84;101153.41;4987385;28;1259;-70
2022/02/11 14:23:12;;;;;;;;;;;;;;;19.60;38.90;101155.06;4989081;28;1439;-66
2022/02/11 14:25:39;;;;;;;;;;;;;;;19.59;38.75;101150.63;4965577;28;1341;-63
2022/02/11 14:28:04;;;;;;;;;;;;;;;19.55;38.61;101154.25;4982567;28;1218;-62
2022/02/11 14:30:30;;;;;;;;;;;;;;;19.53;38.74;101156.47;4988981;28;1284;-63
2022/02/11 14:32:55;;;;;;;;;;;;;;;19.66;38.44;101150.31;4982400;28;1887;-66
2022/02/11 14:35:21;;;;;;;;;;;;;;;19.62;38.53;101144.53;4980950;28;1277;-65
2022/02/11 14:37:46;;;;;;;;;;;;;;;19.56;38.41;101144.84;4990756;28;1002;-68
2022/02/11 14:40:12;;;;;;;;;;;;;;;19.69;38.30;101155.28;4983358;28;1446;-65
2022/02/11 14:42:37;;;;;;;;;;;;;;;19.51;38.64;101154.00;4981905;28;1351;-64
2022/02/11 14:45:03;;;;;;;;;;;;;;;19.62;38.62;101154.78;4978640;28;1397;-62
2022/02/11 14:47:28;;;;;;;;;;;;;;;19.58;38.51;101159.19;4996759;28;1168;-65
2022/02/11 14:49:54;;;;;;;;;;;;;;;19.63;38.13;101159.19;4993218;28;1353;-65
2022/02/11 14:52:19;;;;;;;;;;;;;;;19.59;38.35;101163.63;4994715;28;1331;-71
2022/02/11 14:54:45;;;;;;;;;;;;;;;19.56;38.25;101162.25;4989443;28;1910;-67
2022/02/11 14:57:10;;;;;;;;;;;;;;;19.54;38.41;101163.63;4994083;28;1164;-68
2022/02/11 14:59:36;;;;;;;;;;;;;;;19.66;38.29;101166.88;4992365;28;1287;-64
2022/02/11 15:02:01;;;;;;;;;;;;;;;19.56;38.46;101161.41;5002098;28;1559;-65
2022/02/11 15:04:27;;;;;;;;;;;;;;;19.64;38.53;101166.31;4994835;28;1644;-65
2022/02/11 15:06:52;;;;;;;;;;;;;;;19.62;38.63;101169.38;4998111;28;842;-65
2022/02/11 15:09:18;;;;;;;;;;;;;;;19.67;38.44;101163.84;4997829;28;834;-64
2022/02/11 15:11:44;;;;;;;;;;;;;;;19.65;38.18;101160.53;4983713;28;850;-65
2022/02/11 15:14:09;;;;;;;;;;;;;;;19.54;38.71;101158.94;4983166;28;1906;-66
2022/02/11 15:16:35;;;;;;;;;;;;;;;19.58;38.62;101167.47;4980106;28;949;-66
2022/02/11 15:19:02;;;;;;;;;;;;;;;19.47;38.61;101172.22;4979891;28;795;-64
2022/02/11 15:21:27;;;;;;;;;;;;;;;19.49;38.76;101164.50;4985134;28;1058;-65
2022/02/11 15:23:53;;;;;;;;;;;;;;;19.59;38.47;101166.38;4997153;28;838;-64
2022/02/11 15:26:19;;;;;;;;;;;;;;;19.47;38.56;101162.03;4980903;28;878;-63
2022/02/11 15:28:45;;;;;;;;;;;;;;;19.47;38.52;101172.22;4986663;28;843;-64
2022/02/11 15:31:13;;;;;;;;;;;;;;;19.55;38.54;101170.81;4979399;28;1210;-64
2022/02/11 15:33:40;;;;;;;;;;;;;;;19.54;38.55;101175.47;4979713;28;1906;-60
2022/02/11 15:36:05;;;;;;;;;;;;;;;19.48;38.58;101174.69;4993496;28;994;-61
2022/02/11 15:38:31;;;;;;;;;;;;;;;19.53;38.37;101178.53;4987434;28;897;-60
2022/02/11 15:40:56;;;;;;;;;;;;;;;19.50;38.36;101188.19;4979605;28;744;-59
2022/02/11 15:43:22;;;;;;;;;;;;;;;19.57;38.21;101177.69;4979831;28;866;-59
2022/02/11 15:45:47;;;;;;;;;;;;;;;19.54;38.38;101178.25;4979265;28;830;-60
2022/02/11 15:48:13;;;;;;;;;;;;;;;19.49;38.35;101190.13;4979699;28;790;-60
2022/02/11 15:50:41;;;;;;;;;;;;;;;19.68;38.00;101181.19;4981170;28;783;-59
2022/02/11 15:53:09;;;;;;;;;;;;;;;19.66;37.91;101188.94;4979149;28;1898;-60
2022/02/11 15:55:34;;;;;;;;;;;;;;;19.69;38.06;101188.38;4979245;28;1241;-60
2022/02/11 15:58:00;;;;;;;;;;;;;;;19.68;38.03;101186.72;4984819;28;851;-59
2022/02/11 16:00:25;;;;;;;;;;;;;;;19.69;37.91;101193.09;4979661;28;768;-60
2022/02/11 16:02:51;;;;;;;;;;;;;;;19.70;37.81;101201.06;4984175;28;791;-60
2022/02/11 16:05:16;;;;;;;;;;;;;;;19.77;37.93;101206.28;4979264;28;846;-60
2022/02/11 16:07:42;;;;;;;;;;;;;;;19.56;38.12;101205.53;4979314;28;866;-59
2022/02/11 16:10:07;;;;;;;;;;;;;;;19.70;37.77;101205.75;4978610;28;996;-59
2022/02/11 16:12:33;;;;;;;;;;;;;;;19.70;37.94;101202.97;4982281;28;846;-60
2022/02/11 16:15:00;;;;;;;;;;;;;;;19.73;37.93;101207.97;4980594;28;2011;-60
2022/02/11 16:17:26;;;;;;;;;;;;;;;19.71;37.76;101208.22;4979482;28;899;-59
2022/02/11 16:19:51;;;;;;;;;;;;;;;19.71;37.87;101204.63;4979133;28;1011;-60
2022/02/11 16:22:17;;;;;;;;;;;;;;;19.66;37.78;101203.56;4978888;28;822;-58
2022/02/11 16:24:43;;;;;;;;;;;;;;;19.73;37.62;101206.00;4978696;28;794;-59
2022/02/11 16:27:09;;;;;;;;;;;;;;;19.67;37.73;101202.47;4979721;28;915;-60
2022/02/11 16:29:34;;;;;;;;;;;;;;;19.68;38.01;101219.81;4985039;28;925;-59
2022/02/11 16:32:03;;;;;;;;;;;;;;;19.62;38.09;101218.22;4978533;28;1007;-58
2022/02/11 16:34:28;;;;;;;;;;;;;;;19.64;37.97;101218.75;4978656;28;1910;-58
2022/02/11 16:36:54;;;;;;;;;;;;;;;19.63;38.06;101208.84;4978447;28;934;-59
2022/02/11 16:39:19;;;;;;;;;;;;;;;19.68;38.01;101219.81;4978276;28;854;-58
2022/02/11 16:41:45;;;;;;;;;;;;;;;19.78;37.46;101225.31;4981138;28;798;-59
2022/02/11 16:44:10;;;;;;;;;;;;;;;19.62;37.77;101221.78;4979834;28;1051;-58
2022/02/11 16:46:36;;;;;;;;;;;;;;;19.73;37.73;101222.56;4978731;28;736;-58
2022/02/11 16:49:03;;;;;;;;;;;;;;;19.67;37.74;101219.00;4978486;28;858;-61